Juniata, Nebraska
Current Conditions -  °F | °C
As of 11:53 PM on Sunday 19 Oct 2014 (Local Time) from KHSI Reporting Station
Clear Clear  
Wind Chill: 11°   Ceiling: Unl
Heat Index: 11°   Visibility: 10mi
Dew Point:   Wind: 5mph
Humidity: 77%   Direction: 220°SW
Pressure: 30.02"   Gusts: NA
Location:  40.59°N, 98.51°W
Report Text: KHSI 200453Z AUTO 22004KT 10SM CLR 11/07 A3002 RMK AO2 SLP164 T01060067
Loading
Personal Weather Stations






























Interactive Weather Map
Tropical Storm Tracking
New forecast layout! Learn more

10-Day Weather Forecast

Advertisements
Track Severe Weather on mobile